createdAt,value
2023-11-25T00:01:07.425Z,68.99
2023-11-25T00:02:20.076Z,69.10
2023-11-25T00:03:27.614Z,69.20
2023-11-25T00:04:35.189Z,69.37
2023-11-25T00:05:42.116Z,69.38
2023-11-25T00:06:50.404Z,69.05
2023-11-25T00:07:57.236Z,69.11
2023-11-25T00:09:05.581Z,69.23
2023-11-25T00:10:14.898Z,69.44
2023-11-25T00:11:28.223Z,69.38
2023-11-25T00:12:37.918Z,69.09
2023-11-25T00:13:46.619Z,69.42
2023-11-25T00:14:53.375Z,69.05
2023-11-25T00:16:00.417Z,68.91
2023-11-25T00:17:07.174Z,68.73
2023-11-25T00:18:14.498Z,68.91
2023-11-25T00:19:20.962Z,68.06
2023-11-25T00:20:28.519Z,67.46
2023-11-25T00:21:34.768Z,67.45
2023-11-25T00:22:41.422Z,67.62
2023-11-25T00:23:49.914Z,67.29
2023-11-25T00:24:57.518Z,66.78
2023-11-25T00:26:05.204Z,67.05
2023-11-25T00:27:12.116Z,67.00
2023-11-25T00:28:18.752Z,67.07
2023-11-25T00:29:26.655Z,67.19
2023-11-25T00:30:35.382Z,67.25
2023-11-25T00:31:42.859Z,67.20
2023-11-25T00:32:50.877Z,67.17
2023-11-25T00:33:57.514Z,67.05
2023-11-25T00:35:07.661Z,67.14
2023-11-25T00:36:14.350Z,66.80
2023-11-25T00:37:22.191Z,66.82
2023-11-25T00:38:29.762Z,67.12
2023-11-25T00:39:36.628Z,66.97
2023-11-25T00:40:43.030Z,66.34
2023-11-25T00:41:49.828Z,66.31
2023-11-25T00:42:56.226Z,66.47
2023-11-25T00:44:04.550Z,66.42
2023-11-25T00:45:12.570Z,66.06
2023-11-25T00:46:19.190Z,66.05
2023-11-25T00:47:25.510Z,66.16
2023-11-25T00:48:32.649Z,65.97
2023-11-25T00:49:40.017Z,65.93
2023-11-25T00:50:47.008Z,66.06
2023-11-25T00:51:53.672Z,66.39
2023-11-25T00:53:01.006Z,66.18
2023-11-25T00:54:09.432Z,66.14
2023-11-25T00:55:16.116Z,66.09
2023-11-25T00:56:23.038Z,66.31
2023-11-25T00:57:29.777Z,66.53
2023-11-25T00:58:36.394Z,66.47
2023-11-25T00:59:44.949Z,66.53
2023-11-25T01:00:53.779Z,66.41
2023-11-25T01:02:00.937Z,66.37
2023-11-25T01:03:08.158Z,66.57
2023-11-25T01:04:14.745Z,66.34
2023-11-25T01:05:21.026Z,66.47
2023-11-25T01:06:28.523Z,66.40
2023-11-25T01:07:35.060Z,66.56
2023-11-25T01:08:42.764Z,66.14
2023-11-25T01:09:50.680Z,66.61
2023-11-25T01:10:57.129Z,66.34
2023-11-25T01:12:05.450Z,66.58
2023-11-25T01:13:12.027Z,66.67
2023-11-25T01:14:19.242Z,66.56
2023-11-25T01:15:26.617Z,66.67
2023-11-25T01:16:34.671Z,66.41
2023-11-25T01:17:41.773Z,66.52
2023-11-25T01:18:48.790Z,66.52
2023-11-25T01:19:55.421Z,66.55
2023-11-25T01:21:02.012Z,66.58
2023-11-25T01:22:08.957Z,66.87
2023-11-25T01:23:19.019Z,66.77
2023-11-25T01:24:25.512Z,66.78
2023-11-25T01:25:32.686Z,66.74
2023-11-25T01:26:39.659Z,66.71
2023-11-25T01:27:46.147Z,66.74
2023-11-25T01:28:53.806Z,66.71
2023-11-25T01:30:01.636Z,66.59
2023-11-25T01:31:11.417Z,66.54
2023-11-25T01:32:18.754Z,66.59
2023-11-25T01:33:26.968Z,66.63
2023-11-25T01:34:34.038Z,66.81
2023-11-25T01:35:41.095Z,66.49
2023-11-25T01:36:47.331Z,66.51
2023-11-25T01:37:53.815Z,66.53
2023-11-25T01:39:00.670Z,66.83
2023-11-25T01:40:13.059Z,66.51
2023-11-25T01:41:19.842Z,66.67
2023-11-25T01:42:26.961Z,66.63
2023-11-25T01:43:33.453Z,66.54
2023-11-25T01:44:39.949Z,66.39
2023-11-25T01:45:52.243Z,66.46
2023-11-25T01:46:59.127Z,65.98
2023-11-25T01:48:08.357Z,66.35
2023-11-25T01:49:17.309Z,66.28
2023-11-25T01:50:22.362Z,66.35
2023-11-25T01:51:29.584Z,66.61
2023-11-25T01:52:39.661Z,66.65
2023-11-25T01:53:47.778Z,66.51
2023-11-25T01:54:54.500Z,66.42
2023-11-25T01:56:02.155Z,66.45
2023-11-25T01:57:10.125Z,66.59
2023-11-25T01:58:19.574Z,66.83
2023-11-25T01:59:29.312Z,66.87
2023-11-25T02:00:41.379Z,66.76
2023-11-25T02:01:48.284Z,66.68
2023-11-25T02:02:56.809Z,67.03
2023-11-25T02:04:03.178Z,67.20
2023-11-25T02:05:11.664Z,66.93
2023-11-25T02:06:19.127Z,66.87
2023-11-25T02:07:25.714Z,66.91
2023-11-25T02:08:33.736Z,67.15
2023-11-25T02:09:42.859Z,66.89
2023-11-25T02:10:47.836Z,66.84
2023-11-25T02:11:58.786Z,66.70
2023-11-25T02:13:09.953Z,66.68
2023-11-25T02:14:16.690Z,66.87
2023-11-25T02:15:24.100Z,66.80
2023-11-25T02:16:30.613Z,66.93
2023-11-25T02:17:37.778Z,67.15
2023-11-25T02:18:45.274Z,67.20
2023-11-25T02:19:55.961Z,67.18
2023-11-25T02:21:03.535Z,66.80
2023-11-25T02:22:13.482Z,66.86
2023-11-25T02:23:23.661Z,66.94
2023-11-25T02:24:31.587Z,66.99
2023-11-25T02:25:39.305Z,67.02
2023-11-25T02:26:46.143Z,66.74
2023-11-25T02:27:52.824Z,66.82
2023-11-25T02:28:59.547Z,67.05
2023-11-25T02:30:08.305Z,67.57
2023-11-25T02:31:14.696Z,67.17
2023-11-25T02:32:21.656Z,67.22
2023-11-25T02:33:36.323Z,67.39
2023-11-25T02:34:42.720Z,67.46
2023-11-25T02:35:49.329Z,67.37
2023-11-25T02:36:55.671Z,67.47
2023-11-25T02:38:02.218Z,67.17
2023-11-25T02:39:11.274Z,67.17
2023-11-25T02:40:18.915Z,67.43
2023-11-25T02:41:26.783Z,67.45
2023-11-25T02:42:33.612Z,66.69
2023-11-25T02:43:40.360Z,67.34
2023-11-25T02:44:47.900Z,67.19
2023-11-25T02:45:54.893Z,66.89
2023-11-25T02:47:01.866Z,67.43
2023-11-25T02:48:11.942Z,67.26
2023-11-25T02:49:19.218Z,67.53
2023-11-25T02:50:26.178Z,67.16
2023-11-25T02:51:35.372Z,67.19
2023-11-25T02:52:42.296Z,66.96
2023-11-25T02:53:50.730Z,67.00
2023-11-25T02:54:57.456Z,67.52
2023-11-25T02:56:04.356Z,67.23
2023-11-25T02:57:13.485Z,67.29
2023-11-25T02:58:18.499Z,67.27
2023-11-25T02:59:25.663Z,67.34
2023-11-25T03:00:38.342Z,67.47
2023-11-25T03:01:55.722Z,67.10
2023-11-25T03:03:18.718Z,67.16
2023-11-25T03:04:28.608Z,67.28
2023-11-25T03:05:35.211Z,67.23
2023-11-25T03:06:43.185Z,67.27
2023-11-25T03:07:51.660Z,67.27
2023-11-25T03:08:59.045Z,67.63
2023-11-25T03:10:07.753Z,67.33
2023-11-25T03:11:19.305Z,67.47
2023-11-25T03:12:26.047Z,67.32
2023-11-25T03:13:33.412Z,67.35
2023-11-25T03:14:40.316Z,67.00
2023-11-25T03:15:46.955Z,67.47
2023-11-25T03:16:57.354Z,67.37
2023-11-25T03:18:04.020Z,67.08
2023-11-25T03:19:12.834Z,67.51
2023-11-25T03:20:19.907Z,67.51
2023-11-25T03:21:26.548Z,67.32
2023-11-25T03:22:32.926Z,67.30
2023-11-25T03:23:39.916Z,67.22
2023-11-25T03:24:47.094Z,67.58
2023-11-25T03:25:53.918Z,67.38
2023-11-25T03:27:00.687Z,67.61
2023-11-25T03:28:10.281Z,67.94
2023-11-25T03:29:19.880Z,68.07
2023-11-25T03:30:29.180Z,67.78
2023-11-25T03:31:35.740Z,67.87
2023-11-25T03:32:43.143Z,68.20
2023-11-25T03:33:49.867Z,68.14
2023-11-25T03:34:58.528Z,68.35
2023-11-25T03:36:09.642Z,68.71
2023-11-25T03:37:16.416Z,68.43
2023-11-25T03:38:24.840Z,68.62
2023-11-25T03:39:32.666Z,68.62
2023-11-25T03:40:39.277Z,68.89
2023-11-25T03:41:46.650Z,68.83
2023-11-25T03:42:53.000Z,69.32
2023-11-25T03:44:02.236Z,69.22
2023-11-25T03:45:10.773Z,69.04
2023-11-25T03:46:15.936Z,69.12
2023-11-25T03:47:24.554Z,69.27
2023-11-25T03:48:33.829Z,69.44
2023-11-25T03:49:40.580Z,69.51
2023-11-25T03:50:47.634Z,69.30
2023-11-25T03:51:54.114Z,69.35
2023-11-25T03:53:00.837Z,69.53
2023-11-25T03:54:07.623Z,69.36
2023-11-25T03:55:15.247Z,69.23
2023-11-25T03:56:22.604Z,69.53
2023-11-25T03:57:29.169Z,69.36
2023-11-25T03:58:37.295Z,69.24
2023-11-25T03:59:44.251Z,69.12
2023-11-25T04:00:51.099Z,69.50
2023-11-25T04:01:57.972Z,69.37
2023-11-25T04:03:05.846Z,69.48
2023-11-25T04:04:13.687Z,69.50
2023-11-25T04:05:20.977Z,69.60
2023-11-25T04:06:27.723Z,69.75
2023-11-25T04:07:34.563Z,69.67
2023-11-25T04:08:41.519Z,69.46
2023-11-25T04:09:48.383Z,69.79
2023-11-25T04:10:55.272Z,70.11
2023-11-25T04:12:02.410Z,69.95
2023-11-25T04:13:08.807Z,69.98
2023-11-25T04:14:16.545Z,69.93
2023-11-25T04:15:23.751Z,69.95
2023-11-25T04:16:30.254Z,69.84
2023-11-25T04:17:37.865Z,69.83
2023-11-25T04:18:44.324Z,70.02
2023-11-25T04:19:50.918Z,69.86
2023-11-25T04:20:57.718Z,69.96
2023-11-25T04:22:05.548Z,70.10
2023-11-25T04:23:14.403Z,70.16
2023-11-25T04:24:24.012Z,70.42
2023-11-25T04:25:30.320Z,70.36
2023-11-25T04:26:38.708Z,69.77
2023-11-25T04:27:50.972Z,69.58
2023-11-25T04:28:57.650Z,70.01
2023-11-25T04:30:04.311Z,69.69
2023-11-25T04:31:10.841Z,69.50
2023-11-25T04:32:17.662Z,69.42
2023-11-25T04:33:26.236Z,69.58
2023-11-25T04:34:32.871Z,69.66
2023-11-25T04:35:39.534Z,69.48
2023-11-25T04:36:46.556Z,69.63
2023-11-25T04:37:53.793Z,69.50
2023-11-25T04:39:00.511Z,69.12
2023-11-25T04:40:12.928Z,69.37
2023-11-25T04:41:19.563Z,68.99
2023-11-25T04:42:27.291Z,68.74
2023-11-25T04:43:33.943Z,68.69
2023-11-25T04:44:41.944Z,68.88
2023-11-25T04:45:49.745Z,68.48
2023-11-25T04:46:56.185Z,68.95
2023-11-25T04:48:05.306Z,68.91
2023-11-25T04:49:12.337Z,68.64
2023-11-25T04:50:22.550Z,68.73
2023-11-25T04:51:32.688Z,69.00
2023-11-25T04:52:39.397Z,68.86
2023-11-25T04:53:45.925Z,68.84
2023-11-25T04:54:52.862Z,69.00
2023-11-25T04:55:59.386Z,68.77
2023-11-25T04:57:08.411Z,68.94
2023-11-25T04:58:16.916Z,68.79
2023-11-25T04:59:26.572Z,69.23
2023-11-25T05:00:33.241Z,69.54
2023-11-25T05:01:40.633Z,69.74
2023-11-25T05:02:49.398Z,69.63
2023-11-25T05:03:55.950Z,69.53
2023-11-25T05:05:02.405Z,69.21
2023-11-25T05:06:15.077Z,69.06
2023-11-25T05:07:22.900Z,69.25
2023-11-25T05:08:31.051Z,68.68
2023-11-25T05:09:39.569Z,68.81
2023-11-25T05:10:46.766Z,68.88
2023-11-25T05:11:55.846Z,68.95
2023-11-25T05:13:03.571Z,69.17
2023-11-25T05:14:09.984Z,69.56
2023-11-25T05:15:17.094Z,69.30
2023-11-25T05:16:23.635Z,69.36
2023-11-25T05:17:30.751Z,69.17
2023-11-25T05:18:38.409Z,69.46
2023-11-25T05:19:45.762Z,69.21
2023-11-25T05:20:53.145Z,69.26
2023-11-25T05:21:59.815Z,69.25
2023-11-25T05:23:07.853Z,69.31
2023-11-25T05:24:15.379Z,69.49
2023-11-25T05:25:23.852Z,69.68
2023-11-25T05:26:31.848Z,69.32
2023-11-25T05:27:38.188Z,69.37
2023-11-25T05:28:44.742Z,69.69
2023-11-25T05:29:51.663Z,69.66
2023-11-25T05:30:58.080Z,69.65
2023-11-25T05:32:05.722Z,69.69
2023-11-25T05:33:12.175Z,69.57
2023-11-25T05:34:18.800Z,69.77
2023-11-25T05:35:25.514Z,69.70
2023-11-25T05:36:34.489Z,69.86
2023-11-25T05:37:42.770Z,69.87
2023-11-25T05:38:51.139Z,70.03
2023-11-25T05:39:57.585Z,70.18
2023-11-25T05:41:05.788Z,70.05
2023-11-25T05:42:15.334Z,69.94
2023-11-25T05:43:25.347Z,70.34
2023-11-25T05:44:34.158Z,70.37
2023-11-25T05:45:42.594Z,70.54
2023-11-25T05:46:49.256Z,70.65
2023-11-25T05:47:55.908Z,70.63
2023-11-25T05:49:06.328Z,70.58
2023-11-25T05:50:13.510Z,70.65
2023-11-25T05:51:21.644Z,70.56
2023-11-25T05:52:28.182Z,70.96
2023-11-25T05:53:36.390Z,70.85
2023-11-25T05:54:45.129Z,70.82
2023-11-25T05:55:51.475Z,71.02
2023-11-25T05:56:57.899Z,71.22
2023-11-25T05:58:04.554Z,71.37
2023-11-25T05:59:11.322Z,71.42
2023-11-25T06:00:25.262Z,71.56
2023-11-25T06:01:34.252Z,71.57
2023-11-25T06:02:43.388Z,72.12
2023-11-25T06:03:54.420Z,71.95
2023-11-25T06:05:01.330Z,71.57
2023-11-25T06:06:09.978Z,72.34
2023-11-25T06:07:16.731Z,71.97
2023-11-25T06:08:23.315Z,72.29
2023-11-25T06:09:29.859Z,72.62
2023-11-25T06:10:36.197Z,73.08
2023-11-25T06:11:42.788Z,72.91
2023-11-25T06:12:49.108Z,73.00
2023-11-25T06:13:58.456Z,72.91
2023-11-25T06:15:06.916Z,72.83
2023-11-25T06:16:14.468Z,72.17
2023-11-25T06:17:25.269Z,72.22
2023-11-25T06:18:32.459Z,72.55
2023-11-25T06:19:39.948Z,73.21
2023-11-25T06:20:47.937Z,72.80
2023-11-25T06:21:55.933Z,72.65
2023-11-25T06:23:02.882Z,72.68
2023-11-25T06:24:10.900Z,72.74
2023-11-25T06:25:18.306Z,72.82
2023-11-25T06:26:25.144Z,72.98
2023-11-25T06:27:31.874Z,73.02
2023-11-25T06:28:43.133Z,73.06
2023-11-25T06:29:51.157Z,73.03
2023-11-25T06:30:58.156Z,73.16
2023-11-25T06:32:04.955Z,73.28
2023-11-25T06:33:11.729Z,73.45
2023-11-25T06:34:18.570Z,73.58
2023-11-25T06:35:27.041Z,73.31
2023-11-25T06:36:33.420Z,73.18
2023-11-25T06:37:42.245Z,73.47
2023-11-25T06:38:46.900Z,73.36
2023-11-25T06:39:53.444Z,73.67
2023-11-25T06:40:59.972Z,74.35
2023-11-25T06:42:10.352Z,73.92
2023-11-25T06:43:16.964Z,73.69
2023-11-25T06:44:24.352Z,74.04
2023-11-25T06:45:31.599Z,73.95
2023-11-25T06:46:37.923Z,74.10
2023-11-25T06:47:44.731Z,74.25
2023-11-25T06:48:53.927Z,74.28
2023-11-25T06:50:02.816Z,74.29
2023-11-25T06:51:12.926Z,74.45
2023-11-25T06:52:19.577Z,74.60
2023-11-25T06:53:25.993Z,74.58
2023-11-25T06:54:34.238Z,74.50
2023-11-25T06:55:42.817Z,74.83
2023-11-25T06:56:49.621Z,74.52
2023-11-25T06:57:55.866Z,74.53
2023-11-25T06:59:02.328Z,74.93
2023-11-25T07:00:13.061Z,74.83
2023-11-25T07:01:23.470Z,74.64
2023-11-25T07:02:31.171Z,74.87
2023-11-25T07:03:37.911Z,74.39
2023-11-25T07:04:44.670Z,74.49
2023-11-25T07:05:51.659Z,74.60
2023-11-25T07:06:58.368Z,74.81
2023-11-25T07:08:06.521Z,74.72
2023-11-25T07:09:16.499Z,75.02
2023-11-25T07:10:22.989Z,75.07
2023-11-25T07:11:32.620Z,74.86
2023-11-25T07:12:39.437Z,75.03
2023-11-25T07:13:46.473Z,74.77
2023-11-25T07:14:53.730Z,74.92
2023-11-25T07:16:02.727Z,75.25
2023-11-25T07:17:13.334Z,75.01
2023-11-25T07:18:21.132Z,75.13
2023-11-25T07:19:28.364Z,74.95
2023-11-25T07:20:35.021Z,74.82
2023-11-25T07:21:41.371Z,74.85
2023-11-25T07:22:48.695Z,75.00
2023-11-25T07:23:57.465Z,75.13
2023-11-25T07:25:03.866Z,75.16
2023-11-25T07:26:13.908Z,75.34
2023-11-25T07:27:20.518Z,75.20
2023-11-25T07:28:27.912Z,74.94
2023-11-25T07:29:36.458Z,74.78
2023-11-25T07:30:43.425Z,75.24
2023-11-25T07:31:50.560Z,75.37
2023-11-25T07:32:58.053Z,75.05
2023-11-25T07:34:07.462Z,75.03
2023-11-25T07:35:14.154Z,74.82
2023-11-25T07:36:21.446Z,75.01
2023-11-25T07:37:28.676Z,74.92
2023-11-25T07:38:35.212Z,74.96
2023-11-25T07:39:41.913Z,74.94
2023-11-25T07:40:48.575Z,75.41
2023-11-25T07:41:55.622Z,75.39
2023-11-25T07:43:02.703Z,75.05
2023-11-25T07:44:09.499Z,75.48
2023-11-25T07:45:17.990Z,75.33
2023-11-25T07:46:25.121Z,75.40
2023-11-25T07:47:32.182Z,75.05
2023-11-25T07:48:39.391Z,75.21
2023-11-25T07:49:47.105Z,75.24
2023-11-25T07:50:53.746Z,75.60
2023-11-25T07:52:00.351Z,75.59
2023-11-25T07:53:08.495Z,75.32
2023-11-25T07:54:15.385Z,75.59
2023-11-25T07:55:22.566Z,75.76
2023-11-25T07:56:29.633Z,75.51
2023-11-25T07:57:36.133Z,75.67
2023-11-25T07:58:42.862Z,75.45
2023-11-25T07:59:50.954Z,75.74
2023-11-25T08:00:59.639Z,75.70
2023-11-25T08:02:07.061Z,75.98
2023-11-25T08:03:14.289Z,75.65
2023-11-25T08:04:20.837Z,75.74
2023-11-25T08:05:27.750Z,76.18
2023-11-25T08:06:34.098Z,77.63
2023-11-25T08:07:41.655Z,78.37
2023-11-25T08:08:47.964Z,77.31
2023-11-25T08:09:54.209Z,77.11
2023-11-25T08:11:00.753Z,76.21
2023-11-25T08:12:09.851Z,75.77
2023-11-25T08:13:19.589Z,76.58
2023-11-25T08:14:26.973Z,77.18
2023-11-25T08:15:34.452Z,76.52
2023-11-25T08:16:41.220Z,76.56
2023-11-25T08:17:47.896Z,77.36
2023-11-25T08:18:54.801Z,77.46
2023-11-25T08:20:01.675Z,77.08
2023-11-25T08:21:08.888Z,77.34
2023-11-25T08:22:16.199Z,76.93
2023-11-25T08:23:23.035Z,77.54
2023-11-25T08:24:30.110Z,77.07
2023-11-25T08:25:36.857Z,75.78
2023-11-25T08:26:43.294Z,75.56
2023-11-25T08:27:53.144Z,75.88
2023-11-25T08:29:00.633Z,75.65
2023-11-25T08:30:12.875Z,75.69
2023-11-25T08:31:20.050Z,75.40
2023-11-25T08:32:26.800Z,75.29
2023-11-25T08:33:35.389Z,74.95
2023-11-25T08:34:42.018Z,75.11
2023-11-25T08:35:50.213Z,74.82
2023-11-25T08:36:56.732Z,75.04
2023-11-25T08:38:03.274Z,74.99
2023-11-25T08:39:10.543Z,74.98
2023-11-25T08:40:18.467Z,75.51
2023-11-25T08:41:27.254Z,75.46
2023-11-25T08:42:33.842Z,75.57
2023-11-25T08:43:44.788Z,75.68
2023-11-25T08:44:52.468Z,75.32
2023-11-25T08:46:01.434Z,75.68
2023-11-25T08:47:08.354Z,75.42
2023-11-25T08:48:16.066Z,75.35
2023-11-25T08:49:23.670Z,75.59
2023-11-25T08:50:30.515Z,75.78
2023-11-25T08:51:36.955Z,76.12
2023-11-25T08:52:45.839Z,76.13
2023-11-25T08:53:52.426Z,75.78
2023-11-25T08:54:58.908Z,75.66
2023-11-25T08:56:08.136Z,75.85
2023-11-25T08:57:16.334Z,75.45
2023-11-25T08:58:27.403Z,75.53
2023-11-25T08:59:34.415Z,75.58
2023-11-25T09:00:41.434Z,75.81
2023-11-25T09:01:50.332Z,75.56
2023-11-25T09:02:58.812Z,75.77
2023-11-25T09:04:08.047Z,75.39
2023-11-25T09:05:16.351Z,75.31
2023-11-25T09:06:24.892Z,76.15
2023-11-25T09:07:33.599Z,76.04
2023-11-25T09:08:41.921Z,75.56
2023-11-25T09:09:51.125Z,75.69
2023-11-25T09:10:59.005Z,75.66
2023-11-25T09:12:09.811Z,75.86
2023-11-25T09:13:16.723Z,76.43
2023-11-25T09:14:23.307Z,76.18
2023-11-25T09:15:31.058Z,75.99
2023-11-25T09:16:40.257Z,76.11
2023-11-25T09:17:47.031Z,76.15
2023-11-25T09:18:56.398Z,76.28
2023-11-25T09:20:05.836Z,75.96
2023-11-25T09:21:12.263Z,76.45
2023-11-25T09:22:18.927Z,76.26
2023-11-25T09:23:25.950Z,76.21
2023-11-25T09:24:32.560Z,76.54
2023-11-25T09:25:39.301Z,76.90
2023-11-25T09:26:48.281Z,76.78
2023-11-25T09:27:54.990Z,77.23
2023-11-25T09:29:02.132Z,77.69
2023-11-25T09:30:13.216Z,77.66
2023-11-25T09:31:20.483Z,77.79
2023-11-25T09:32:29.075Z,77.79
2023-11-25T09:33:37.595Z,77.92
2023-11-25T09:34:45.410Z,77.85
2023-11-25T09:35:52.217Z,77.89
2023-11-25T09:36:58.784Z,78.02
2023-11-25T09:38:05.585Z,77.97
2023-11-25T09:39:13.225Z,78.04
2023-11-25T09:40:21.257Z,78.21
2023-11-25T09:41:32.226Z,78.45
2023-11-25T09:42:39.222Z,78.24
2023-11-25T09:43:46.474Z,78.33
2023-11-25T09:44:54.142Z,78.56
2023-11-25T09:46:01.985Z,78.32
2023-11-25T09:47:09.374Z,78.32
2023-11-25T09:48:15.922Z,78.64
2023-11-25T09:49:23.319Z,78.36
2023-11-25T09:50:29.807Z,78.36
2023-11-25T09:51:37.902Z,78.14
2023-11-25T09:52:51.504Z,78.39
2023-11-25T09:54:03.726Z,78.54
2023-11-25T09:55:11.237Z,78.06
2023-11-25T09:56:19.872Z,78.30
2023-11-25T09:57:34.305Z,78.20
2023-11-25T09:58:40.828Z,78.24
2023-11-25T09:59:48.155Z,78.13
2023-11-25T10:00:57.397Z,78.17
2023-11-25T10:02:07.944Z,78.33
2023-11-25T10:03:16.523Z,78.14
2023-11-25T10:04:29.008Z,78.26
2023-11-25T10:05:37.440Z,78.51
2023-11-25T10:06:43.956Z,78.30
2023-11-25T10:07:51.157Z,78.44
2023-11-25T10:08:57.768Z,78.32
2023-11-25T10:10:06.267Z,78.54
2023-11-25T10:11:16.484Z,78.61
2023-11-25T10:12:22.953Z,78.24
2023-11-25T10:13:33.777Z,78.54
2023-11-25T10:14:44.546Z,78.79
2023-11-25T10:15:52.592Z,78.65
2023-11-25T10:16:59.019Z,78.47
2023-11-25T10:18:07.989Z,78.68
2023-11-25T10:19:24.380Z,78.62
2023-11-25T10:20:32.341Z,78.60
2023-11-25T10:21:39.829Z,78.53
2023-11-25T10:22:50.188Z,78.69
2023-11-25T10:24:07.123Z,78.48
2023-11-25T10:25:14.018Z,78.35
2023-11-25T10:26:22.426Z,78.21
2023-11-25T10:27:29.216Z,78.19
2023-11-25T10:28:38.262Z,78.21
2023-11-25T10:29:43.281Z,78.25
2023-11-25T10:30:57.824Z,78.07
2023-11-25T10:32:05.426Z,78.15
2023-11-25T10:33:13.295Z,78.33
2023-11-25T10:34:22.530Z,78.25
2023-11-25T10:35:27.938Z,77.99
2023-11-25T10:36:35.228Z,78.29
2023-11-25T10:37:42.213Z,78.55
2023-11-25T10:38:50.404Z,78.42
2023-11-25T10:39:57.013Z,78.10
2023-11-25T10:41:07.124Z,78.41
2023-11-25T10:42:14.871Z,78.21
2023-11-25T10:43:23.579Z,78.04
2023-11-25T10:44:31.706Z,77.97
2023-11-25T10:45:39.109Z,77.56
2023-11-25T10:46:45.866Z,77.50
2023-11-25T10:47:52.907Z,77.47
2023-11-25T10:49:01.841Z,77.94
2023-11-25T10:50:09.895Z,77.49
2023-11-25T10:51:17.613Z,77.65
2023-11-25T10:52:25.185Z,77.28
2023-11-25T10:53:32.095Z,77.40
2023-11-25T10:54:39.551Z,77.60
2023-11-25T10:55:47.975Z,77.63
2023-11-25T10:56:57.750Z,78.08
2023-11-25T10:58:06.533Z,77.68
2023-11-25T10:59:16.513Z,77.32
2023-11-25T11:00:23.716Z,78.09
2023-11-25T11:01:34.375Z,77.73
2023-11-25T11:02:48.750Z,77.87
2023-11-25T11:04:04.188Z,77.86
2023-11-25T11:05:10.190Z,77.97
2023-11-25T11:06:21.589Z,78.17
2023-11-25T11:07:32.029Z,78.19
2023-11-25T11:08:44.140Z,77.93
2023-11-25T11:09:56.259Z,77.97
2023-11-25T11:11:08.725Z,78.16
2023-11-25T11:12:25.329Z,78.40
2023-11-25T11:13:39.344Z,78.45
2023-11-25T11:14:56.002Z,78.18
2023-11-25T11:16:08.163Z,78.54
2023-11-25T11:17:30.045Z,78.90
2023-11-25T11:18:40.678Z,78.82
2023-11-25T11:19:52.376Z,79.27
2023-11-25T11:21:02.222Z,79.06
2023-11-25T11:22:12.391Z,78.88
2023-11-25T11:23:21.077Z,78.85
2023-11-25T11:24:34.630Z,78.60
2023-11-25T11:25:49.805Z,78.68
2023-11-25T11:27:06.497Z,78.21
2023-11-25T11:28:24.531Z,78.50
2023-11-25T11:29:38.286Z,78.37
2023-11-25T11:31:04.211Z,78.66
2023-11-25T11:32:14.898Z,78.31
2023-11-25T11:33:22.010Z,78.53
2023-11-25T11:34:30.776Z,78.41
2023-11-25T11:35:41.364Z,78.42
2023-11-25T11:36:47.970Z,78.56
2023-11-25T11:37:58.889Z,78.14
2023-11-25T11:39:10.261Z,78.44
2023-11-25T11:40:21.785Z,78.75
2023-11-25T11:41:31.926Z,78.57
2023-11-25T11:42:41.065Z,78.38
2023-11-25T11:44:01.520Z,78.67
2023-11-25T11:45:15.900Z,78.96
2023-11-25T11:46:22.222Z,79.06
2023-11-25T11:47:29.117Z,79.04
2023-11-25T11:48:35.950Z,79.18
2023-11-25T11:49:42.722Z,79.27
2023-11-25T11:50:56.314Z,79.07
2023-11-25T11:52:06.751Z,79.26
2023-11-25T11:53:17.687Z,79.67
2023-11-25T11:54:29.697Z,79.23
2023-11-25T11:55:40.651Z,79.12
2023-11-25T11:57:03.894Z,78.89
2023-11-25T11:58:12.560Z,78.95
2023-11-25T11:59:19.599Z,78.90
2023-11-25T12:00:28.995Z,79.62
2023-11-25T12:01:36.245Z,79.58
2023-11-25T12:02:44.473Z,79.13
2023-11-25T12:03:53.243Z,79.48
2023-11-25T12:05:02.216Z,79.29
2023-11-25T12:06:16.450Z,79.02
2023-11-25T12:07:23.318Z,78.56
2023-11-25T12:08:32.427Z,78.89
2023-11-25T12:09:39.081Z,78.75
2023-11-25T12:10:45.717Z,78.25
2023-11-25T12:12:02.424Z,78.38
2023-11-25T12:13:13.423Z,78.45
2023-11-25T12:14:20.030Z,79.18
2023-11-25T12:15:26.692Z,79.06
2023-11-25T12:16:34.663Z,78.82
2023-11-25T12:17:43.841Z,79.08
2023-11-25T12:18:51.025Z,79.36
2023-11-25T12:19:58.985Z,79.26
2023-11-25T12:21:07.170Z,78.82
2023-11-25T12:22:14.191Z,78.17
2023-11-25T12:23:20.587Z,78.60
2023-11-25T12:24:27.929Z,78.80
2023-11-25T12:25:35.475Z,78.76
2023-11-25T12:26:51.788Z,78.80
2023-11-25T12:28:06.052Z,78.50
2023-11-25T12:29:17.780Z,78.31
2023-11-25T12:30:26.268Z,78.32
2023-11-25T12:31:34.366Z,78.42
2023-11-25T12:32:42.153Z,78.25
2023-11-25T12:33:49.810Z,78.10
2023-11-25T12:34:56.645Z,78.37
2023-11-25T12:36:04.091Z,78.26
2023-11-25T12:37:14.123Z,78.18
2023-11-25T12:38:22.946Z,78.26
2023-11-25T12:39:30.078Z,77.73
2023-11-25T12:40:37.911Z,76.99
2023-11-25T12:41:44.769Z,76.99
2023-11-25T12:42:53.674Z,77.15
2023-11-25T12:44:11.888Z,76.84
2023-11-25T12:45:41.805Z,77.17
2023-11-25T12:47:05.933Z,76.81
2023-11-25T12:48:17.583Z,76.53
2023-11-25T12:49:27.905Z,76.75
2023-11-25T12:50:36.436Z,76.75
2023-11-25T12:51:46.860Z,76.73
2023-11-25T12:53:09.024Z,76.30
2023-11-25T12:54:15.647Z,75.92
2023-11-25T12:55:36.379Z,75.31
2023-11-25T12:56:44.640Z,75.53
2023-11-25T12:57:51.613Z,75.53
2023-11-25T12:58:57.942Z,74.95
2023-11-25T13:00:12.340Z,74.82
2023-11-25T13:01:26.848Z,74.83
2023-11-25T13:02:35.259Z,74.97
2023-11-25T13:03:42.522Z,74.76
2023-11-25T13:04:51.954Z,74.96
2023-11-25T13:06:05.694Z,74.96
2023-11-25T13:07:31.756Z,74.84
2023-11-25T13:08:46.676Z,74.73
2023-11-25T13:09:52.952Z,74.97
2023-11-25T13:11:01.960Z,75.16
2023-11-25T13:12:09.884Z,75.47
2023-11-25T13:13:18.014Z,74.98
2023-11-25T13:14:25.390Z,74.92
2023-11-25T13:15:31.917Z,75.38
2023-11-25T13:16:39.855Z,74.88
2023-11-25T13:17:49.801Z,74.88
2023-11-25T13:18:59.089Z,74.95
2023-11-25T13:20:12.155Z,75.62
2023-11-25T13:21:20.157Z,75.52
2023-11-25T13:22:26.595Z,75.57
2023-11-25T13:23:34.619Z,75.93
2023-11-25T13:24:41.133Z,76.11
2023-11-25T13:25:47.855Z,76.38
2023-11-25T13:26:54.889Z,76.96
2023-11-25T13:28:01.438Z,76.76
2023-11-25T13:29:09.528Z,76.89
2023-11-25T13:30:17.237Z,77.04
2023-11-25T13:31:25.254Z,76.76
2023-11-25T13:32:32.569Z,76.59
2023-11-25T13:33:39.375Z,76.68
2023-11-25T13:34:46.361Z,76.70
2023-11-25T13:35:53.796Z,76.78
2023-11-25T13:37:00.230Z,76.80
2023-11-25T13:38:10.517Z,77.33
2023-11-25T13:39:21.110Z,77.57
2023-11-25T13:40:34.972Z,77.40
2023-11-25T13:41:41.693Z,77.15
2023-11-25T13:42:48.734Z,77.15
2023-11-25T13:43:56.094Z,77.22
2023-11-25T13:45:04.201Z,77.23
2023-11-25T13:46:10.994Z,77.60
2023-11-25T13:47:17.967Z,77.79
2023-11-25T13:48:24.707Z,78.58
2023-11-25T13:49:31.316Z,78.21
2023-11-25T13:50:39.143Z,77.90
2023-11-25T13:51:46.852Z,77.58
2023-11-25T13:52:54.983Z,78.42
2023-11-25T13:54:02.668Z,78.50
2023-11-25T13:55:13.732Z,78.63
2023-11-25T13:56:21.575Z,78.20
2023-11-25T13:57:27.902Z,78.12
2023-11-25T13:58:34.319Z,77.73
2023-11-25T13:59:41.840Z,77.78
2023-11-25T14:00:48.468Z,77.75
2023-11-25T14:01:56.554Z,77.72
2023-11-25T14:03:08.845Z,78.36
2023-11-25T14:04:15.892Z,77.62
2023-11-25T14:05:23.176Z,77.61
2023-11-25T14:06:31.486Z,77.44
2023-11-25T14:07:41.133Z,77.32
2023-11-25T14:08:48.634Z,77.28
2023-11-25T14:09:56.049Z,77.57
2023-11-25T14:11:03.944Z,77.07
2023-11-25T14:12:11.661Z,77.09
2023-11-25T14:13:19.982Z,77.31
2023-11-25T14:14:27.934Z,77.26
2023-11-25T14:15:35.142Z,77.29
2023-11-25T14:16:48.738Z,77.60
2023-11-25T14:17:57.511Z,78.01
2023-11-25T14:19:05.164Z,78.14
2023-11-25T14:20:17.139Z,78.46
2023-11-25T14:21:24.198Z,78.50
2023-11-25T14:22:30.502Z,78.23
2023-11-25T14:23:37.220Z,78.42
2023-11-25T14:24:44.358Z,78.68
2023-11-25T14:25:51.115Z,78.75
2023-11-25T14:26:57.892Z,78.45
2023-11-25T14:28:04.998Z,78.41
2023-11-25T14:29:11.664Z,78.26
2023-11-25T14:30:20.487Z,77.99
2023-11-25T14:31:28.010Z,77.47
2023-11-25T14:32:35.325Z,77.65
2023-11-25T14:33:41.931Z,77.80
2023-11-25T14:34:48.544Z,77.59
2023-11-25T14:35:56.411Z,77.59
2023-11-25T14:37:05.222Z,77.96
2023-11-25T14:38:12.604Z,78.33
2023-11-25T14:39:20.286Z,77.88
2023-11-25T14:40:26.735Z,77.68